Time;durP1;ratioP1;P1;durP2;ratioP2;P2;SDS_P1;SDS_P2;PMS_P1;PMS_P2;Temp;Humidity;BMP_temperature;BMP_pressure;BME280_temperature;BME280_humidity;BME280_pressure;Samples;Min_cycle;Max_cycle;Signal;HPM_P1;HPM_P2
2022/02/20 00:01:54;;;;;;;1.87;0.57;;;;;;;3.79;84.16;99666.03;5003547;28;20558;-82
2022/02/20 00:04:20;;;;;;;0.73;0.47;;;;;;;3.80;85.20;99665.13;4999072;28;20260;-82
2022/02/20 00:06:48;;;;;;;1.07;0.67;;;;;;;3.83;84.65;99667.59;5002648;28;20206;-81
2022/02/20 00:09:15;;;;;;;1.87;0.70;;;;;;;3.83;84.56;99663.19;4998730;28;20234;-81
2022/02/20 00:11:41;;;;;;;0.80;0.50;;;;;;;3.83;85.43;99659.69;5000000;28;20203;-81
2022/02/20 00:14:08;;;;;;;0.40;0.40;;;;;;;3.83;85.33;99636.84;5000810;28;20218;-80
2022/02/20 00:16:35;;;;;;;0.73;0.50;;;;;;;3.84;85.36;99654.34;5000434;28;20199;-81
2022/02/20 00:19:02;;;;;;;0.43;0.43;;;;;;;3.84;85.34;99657.00;5002546;28;20228;-82
2022/02/20 00:21:28;;;;;;;2.07;0.53;;;;;;;3.80;85.44;99660.69;5005202;28;20211;-81
2022/02/20 00:23:56;;;;;;;2.73;0.60;;;;;;;3.77;85.60;99660.84;5006913;28;20203;-82
2022/02/20 00:26:22;;;;;;;0.60;0.43;;;;;;;3.80;85.80;99658.06;4999906;28;20210;-82
2022/02/20 00:28:49;;;;;;;1.87;0.70;;;;;;;3.80;85.03;99657.22;5008139;28;20704;-82
2022/02/20 00:31:16;;;;;;;1.03;0.53;;;;;;;3.75;86.03;99649.56;5005851;28;20214;-81
2022/02/20 00:33:42;;;;;;;0.83;0.50;;;;;;;3.77;85.40;99657.38;5002263;28;20585;-81
2022/02/20 00:36:09;;;;;;;0.57;0.50;;;;;;;3.75;85.81;99660.09;5005000;28;20207;-82
2022/02/20 00:38:36;;;;;;;1.40;0.60;;;;;;;3.77;86.03;99657.38;5000622;28;20199;-80
2022/02/20 00:41:04;;;;;;;2.17;0.50;;;;;;;3.78;86.00;99661.72;5007829;28;20672;-81
2022/02/20 00:43:30;;;;;;;0.40;0.40;;;;;;;3.78;85.37;99653.81;4996577;28;20206;-82
2022/02/20 00:45:57;;;;;;;2.00;0.50;;;;;;;3.78;86.00;99654.66;4999760;28;20229;-81
2022/02/20 00:48:24;;;;;;;1.00;0.60;;;;;;;3.77;86.59;99665.28;4997309;28;20281;-81
2022/02/20 00:50:51;;;;;;;1.07;0.70;;;;;;;3.77;86.40;99657.38;5001873;28;20237;-81
2022/02/20 00:53:18;;;;;;;0.47;0.47;;;;;;;3.79;86.22;99663.41;4999189;28;20207;-80
2022/02/20 00:55:45;;;;;;;1.13;0.70;;;;;;;3.78;86.34;99665.19;5001619;28;20205;-81
2022/02/20 00:58:13;;;;;;;1.20;0.50;;;;;;;3.81;86.78;99666.81;5002027;28;20206;-80
2022/02/20 01:00:39;;;;;;;1.90;0.50;;;;;;;3.84;86.47;99670.16;5002245;28;20245;-81
2022/02/20 01:03:08;;;;;;;0.50;0.50;;;;;;;3.86;86.52;99675.34;4995552;28;20571;-81
2022/02/20 01:05:34;;;;;;;1.20;0.53;;;;;;;3.86;86.95;99679.75;5007272;28;20249;-82
2022/02/20 01:08:01;;;;;;;2.07;0.50;;;;;;;3.87;87.57;99669.16;5005177;28;20656;-81
2022/02/20 01:10:27;;;;;;;0.87;0.40;;;;;;;3.88;87.29;99681.41;5004700;28;20222;-82
2022/02/20 01:12:54;;;;;;;0.63;0.30;;;;;;;3.93;87.06;99697.81;5006462;28;20207;-81
2022/02/20 01:15:22;;;;;;;1.93;0.50;;;;;;;3.91;87.48;99702.31;5010988;28;20215;-82
2022/02/20 01:17:49;;;;;;;1.83;0.30;;;;;;;3.93;87.46;99689.91;5000332;28;20572;-82
2022/02/20 01:20:15;;;;;;;0.30;0.30;;;;;;;3.97;87.36;99696.72;5006853;28;20231;-81
2022/02/20 01:22:42;;;;;;;0.40;0.40;;;;;;;3.95;88.15;99687.19;5005454;28;20213;-81
2022/02/20 01:25:09;;;;;;;0.43;0.40;;;;;;;3.95;87.99;99693.28;5009644;28;20199;-82
2022/02/20 01:27:35;;;;;;;0.50;0.30;;;;;;;3.97;87.36;99695.84;5010515;28;20211;-82
2022/02/20 01:30:02;;;;;;;0.80;0.50;;;;;;;3.96;87.81;99689.75;5003722;28;20234;-82
2022/02/20 01:32:30;;;;;;;0.40;0.40;;;;;;;3.97;87.46;99696.72;5026043;28;20241;-81
2022/02/20 01:34:57;;;;;;;1.23;0.50;;;;;;;3.95;87.75;99692.44;4997893;28;20204;-81
2022/02/20 01:37:23;;;;;;;0.70;0.50;;;;;;;3.95;88.71;99695.94;5005296;28;20302;-81
2022/02/20 01:39:50;;;;;;;0.40;0.40;;;;;;;3.97;88.48;99695.84;5008583;28;20234;-82
2022/02/20 01:42:17;;;;;;;0.53;0.50;;;;;;;3.99;88.37;99694.84;5001497;28;20276;-81
2022/02/20 01:44:43;;;;;;;0.53;0.40;;;;;;;4.02;88.35;99694.69;5004845;28;20215;-81
2022/02/20 01:47:14;;;;;;;1.33;0.80;;;;;;;4.03;88.23;99700.81;5005726;28;20207;-81
2022/02/20 01:49:42;;;;;;;1.27;0.70;;;;;;;4.03;88.67;99701.69;5001505;28;20242;-81
2022/02/20 01:52:09;;;;;;;1.43;0.60;;;;;;;4.03;88.25;99706.94;4995807;28;20219;-81
2022/02/20 01:54:36;;;;;;;0.80;0.60;;;;;;;4.03;88.68;99709.56;5003580;28;20215;-81
2022/02/20 01:57:04;;;;;;;0.60;0.60;;;;;;;4.06;89.15;99712.06;5004518;28;20214;-81
2022/02/20 01:59:31;;;;;;;1.23;0.80;;;;;;;4.08;88.67;99710.19;4997749;28;20234;-81
2022/02/20 02:01:58;;;;;;;0.90;0.80;;;;;;;4.10;88.89;99713.63;5016272;28;20203;-81
2022/02/20 02:04:24;;;;;;;1.30;0.70;;;;;;;4.11;89.15;99710.06;5014172;28;20215;-81
2022/02/20 02:06:52;;;;;;;2.30;1.27;;;;;;;4.16;89.30;99715.06;5012477;28;20211;-81
2022/02/20 02:09:19;;;;;;;2.13;1.20;;;;;;;4.18;88.78;99705.28;5031887;28;20317;-82
2022/02/20 02:11:48;;;;;;;2.00;1.53;;;;;;;4.22;88.76;99717.38;5024288;28;20211;-82
2022/02/20 02:14:14;;;;;;;2.87;1.40;;;;;;;4.28;88.90;99724.97;5008393;28;20203;-81
2022/02/20 02:16:41;;;;;;;1.67;1.57;;;;;;;4.34;89.84;99727.28;5001910;28;20215;-79
2022/02/20 02:19:07;;;;;;;2.60;1.90;;;;;;;4.41;89.50;99730.44;5007210;28;20234;-80
2022/02/20 02:21:34;;;;;;;3.50;1.80;;;;;;;4.45;90.18;99717.03;5014499;28;20214;-79
2022/02/20 02:24:02;;;;;;;1.90;1.70;;;;;;;4.52;90.20;99736.00;5013223;28;20210;-78
2022/02/20 02:26:30;;;;;;;2.27;1.50;;;;;;;4.59;90.63;99741.81;4999225;28;20302;-79
2022/02/20 02:28:57;;;;;;;2.10;1.63;;;;;;;4.63;90.82;99738.94;5000579;28;20237;-80
2022/02/20 02:31:23;;;;;;;1.30;1.13;;;;;;;4.70;90.50;99745.56;4995843;28;20221;-80
2022/02/20 02:33:51;;;;;;;1.50;1.33;;;;;;;4.74;91.09;99754.19;5013073;28;20544;-79
2022/02/20 02:36:17;;;;;;;1.77;1.57;;;;;;;4.78;90.74;99750.44;5007735;28;20211;-80
2022/02/20 02:38:44;;;;;;;1.67;1.20;;;;;;;4.80;90.67;99757.34;5012779;28;20223;-79
2022/02/20 02:41:12;;;;;;;1.70;1.53;;;;;;;4.84;90.63;99758.00;5006858;28;20238;-79
2022/02/20 02:43:39;;;;;;;1.53;1.30;;;;;;;4.87;90.78;99756.06;4996628;28;20223;-79
2022/02/20 02:46:07;;;;;;;2.20;1.60;;;;;;;4.91;90.96;99754.13;5011459;28;20199;-78
2022/02/20 02:48:33;;;;;;;2.90;1.70;;;;;;;4.94;91.20;99763.66;5010338;28;20210;-79
2022/02/20 02:51:01;;;;;;;2.60;1.53;;;;;;;5.00;91.13;99763.34;5009578;28;20231;-80
2022/02/20 02:53:28;;;;;;;2.17;1.53;;;;;;;5.02;91.13;99774.63;5006689;28;20217;-79
2022/02/20 02:55:55;;;;;;;2.03;1.60;;;;;;;5.04;90.92;99778.03;5022018;28;20203;-80
2022/02/20 02:58:25;;;;;;;2.77;1.80;;;;;;;5.05;91.15;99785.88;5017742;28;20324;-80
2022/02/20 03:00:53;;;;;;;2.83;1.90;;;;;;;5.06;90.95;99795.50;5020573;28;20237;-80
2022/02/20 03:03:20;;;;;;;3.47;1.70;;;;;;;5.07;91.07;99793.72;5016458;28;20206;-80
2022/02/20 03:05:46;;;;;;;2.07;1.60;;;;;;;5.08;91.25;99798.91;5017121;28;20211;-79
2022/02/20 03:08:13;;;;;;;2.00;1.80;;;;;;;5.10;90.66;99809.38;5001927;28;20558;-80
2022/02/20 03:10:39;;;;;;;2.77;1.90;;;;;;;5.11;90.97;99816.38;5027132;28;20233;-79
2022/02/20 03:13:06;;;;;;;1.97;1.73;;;;;;;5.13;90.86;99828.56;5015798;28;20214;-80
2022/02/20 03:15:34;;;;;;;3.47;1.93;;;;;;;5.14;90.96;99832.91;5012206;28;20277;-80
2022/02/20 03:18:01;;;;;;;3.20;1.90;;;;;;;5.15;90.56;99831.97;5000884;28;20207;-80
2022/02/20 03:20:27;;;;;;;3.77;1.60;;;;;;;5.16;90.79;99840.75;5009515;28;20238;-80
2022/02/20 03:22:54;;;;;;;2.90;1.90;;;;;;;5.16;90.86;99846.00;5008516;28;20203;-80
2022/02/20 03:25:21;;;;;;;2.93;1.93;;;;;;;5.17;90.69;99851.22;4994495;28;20212;-79
2022/02/20 03:27:47;;;;;;;4.30;2.03;;;;;;;5.18;90.38;99858.19;5019916;28;20315;-80
2022/02/20 03:30:14;;;;;;;6.13;2.00;;;;;;;5.18;90.52;99865.25;5003860;28;20682;-79
2022/02/20 03:32:42;;;;;;;4.97;1.90;;;;;;;5.19;90.21;99869.63;5008746;28;20207;-80
2022/02/20 03:35:09;;;;;;;4.13;1.90;;;;;;;5.17;89.91;99869.69;4995325;28;20218;-80
2022/02/20 03:37:36;;;;;;;3.20;1.90;;;;;;;5.16;89.81;99881.19;5009299;28;20218;-80
2022/02/20 03:40:02;;;;;;;3.97;1.90;;;;;;;5.14;89.81;99872.50;5013588;28;20233;-79
2022/02/20 03:42:29;;;;;;;2.13;1.20;;;;;;;5.13;89.66;99888.41;5000416;28;20582;-80
2022/02/20 03:44:56;;;;;;;2.83;1.53;;;;;;;5.12;89.51;99902.53;5017361;28;20656;-79
2022/02/20 03:47:22;;;;;;;1.83;1.27;;;;;;;5.10;89.27;99901.75;5007248;28;20211;-80
2022/02/20 03:49:50;;;;;;;3.90;1.93;;;;;;;5.09;89.25;99913.25;5010562;28;20237;-80
2022/02/20 03:52:16;;;;;;;3.37;1.80;;;;;;;5.08;89.27;99907.13;4999041;28;20207;-79
2022/02/20 03:54:43;;;;;;;3.67;1.43;;;;;;;5.08;89.10;99919.47;5004457;28;20221;-79
2022/02/20 03:57:09;;;;;;;5.80;2.10;;;;;;;5.06;88.93;99924.81;4998184;28;20331;-80
2022/02/20 03:59:36;;;;;;;4.77;1.60;;;;;;;5.09;88.65;99937.00;5005568;28;20615;-80
2022/02/20 04:02:03;;;;;;;4.10;1.87;;;;;;;5.07;88.90;99942.34;5015755;28;20206;-80
2022/02/20 04:04:30;;;;;;;2.60;1.60;;;;;;;5.07;88.55;99936.22;5014454;28;20215;-80
2022/02/20 04:06:58;;;;;;;3.17;1.33;;;;;;;5.06;88.27;99953.00;5011263;28;20207;-79
2022/02/20 04:09:25;;;;;;;2.57;1.73;;;;;;;5.05;88.11;99951.28;5024020;28;20237;-80
2022/02/20 04:11:52;;;;;;;2.77;1.87;;;;;;;5.04;88.35;99962.78;5003558;28;20212;-80
2022/02/20 04:14:18;;;;;;;3.17;1.33;;;;;;;5.04;87.84;99960.13;5005974;28;20207;-80
2022/02/20 04:16:45;;;;;;;3.87;1.80;;;;;;;5.04;87.73;99965.41;5000004;28;20204;-80
2022/02/20 04:19:11;;;;;;;5.27;2.17;;;;;;;5.05;87.57;99972.41;5002958;28;20221;-80
2022/02/20 04:21:38;;;;;;;3.57;1.83;;;;;;;5.05;87.54;99982.94;5002619;28;20207;-80
2022/02/20 04:24:06;;;;;;;3.73;1.80;;;;;;;5.06;87.45;99972.31;5001359;28;20207;-80
2022/02/20 04:26:33;;;;;;;5.53;2.03;;;;;;;5.05;87.14;99993.50;4998890;28;20211;-79
2022/02/20 04:29:00;;;;;;;4.97;2.33;;;;;;;5.04;87.17;99990.00;5002836;28;20545;-79
2022/02/20 04:31:26;;;;;;;3.40;1.97;;;;;;;5.04;86.72;99997.06;5000829;28;20203;-80
2022/02/20 04:33:53;;;;;;;3.93;2.30;;;;;;;5.02;86.94;100012.13;5004895;28;20215;-80
2022/02/20 04:36:19;;;;;;;6.97;2.57;;;;;;;5.01;86.78;100019.22;4999445;28;20207;-80
2022/02/20 04:38:46;;;;;;;9.57;2.37;;;;;;;5.02;87.09;100022.69;5000667;28;20205;-80
2022/02/20 04:41:14;;;;;;;5.80;2.30;;;;;;;5.02;86.95;100028.81;5010046;28;20223;-81
2022/02/20 04:43:40;;;;;;;5.33;2.20;;;;;;;5.00;86.71;100033.34;5010939;28;20204;-81
2022/02/20 04:46:07;;;;;;;5.37;2.27;;;;;;;4.96;86.92;100039.72;5007430;28;20665;-80
2022/02/20 04:48:34;;;;;;;5.33;2.57;;;;;;;4.98;86.96;100047.56;5011643;28;20616;-80
2022/02/20 04:51:00;;;;;;;3.90;1.97;;;;;;;4.97;86.86;100044.06;5012792;28;20231;-79
2022/02/20 04:53:27;;;;;;;5.40;2.80;;;;;;;4.97;86.68;100053.75;5010993;28;20206;-79
2022/02/20 04:55:53;;;;;;;4.97;2.53;;;;;;;4.98;86.82;100048.41;5004988;28;20207;-79
2022/02/20 04:58:21;;;;;;;4.63;2.50;;;;;;;4.98;86.90;100050.19;5002480;28;20672;-80
2022/02/20 05:00:48;;;;;;;6.23;2.77;;;;;;;4.97;87.02;100053.75;5003794;28;20716;-79
2022/02/20 05:03:14;;;;;;;5.37;3.27;;;;;;;4.96;86.66;100057.31;5004732;28;20228;-79
2022/02/20 05:05:41;;;;;;;8.77;3.30;;;;;;;4.94;86.83;100057.41;5003194;28;20217;-79
2022/02/20 05:08:07;;;;;;;6.13;3.07;;;;;;;4.93;86.75;100062.75;5002163;28;20219;-79
2022/02/20 05:10:34;;;;;;;7.00;2.83;;;;;;;4.90;86.83;100082.22;5007128;28;20242;-80
2022/02/20 05:13:00;;;;;;;5.27;3.20;;;;;;;4.92;86.74;100076.88;4999792;28;20866;-81
2022/02/20 05:15:28;;;;;;;3.60;3.10;;;;;;;4.91;86.65;100076.00;5002416;28;20301;-80
2022/02/20 05:17:55;;;;;;;9.50;3.20;;;;;;;4.94;86.68;100072.38;5009870;28;20230;-81
2022/02/20 05:20:21;;;;;;;7.90;3.80;;;;;;;4.96;86.71;100073.16;5017927;28;20688;-80
2022/02/20 05:22:48;;;;;;;5.37;3.00;;;;;;;4.97;86.36;100069.59;5001281;28;20209;-81
2022/02/20 05:25:16;;;;;;;6.20;3.53;;;;;;;4.96;86.77;100070.53;4998774;28;20680;-80
2022/02/20 05:27:46;;;;;;;6.40;3.57;;;;;;;4.96;86.41;100075.78;4997442;28;20653;-80
2022/02/20 05:30:16;;;;;;;8.57;3.37;;;;;;;4.96;86.70;100079.28;4994015;28;20242;-80
2022/02/20 05:32:44;;;;;;;12.47;3.10;;;;;;;4.95;86.41;100092.56;5000247;28;20666;-80
2022/02/20 05:35:10;;;;;;;8.13;3.60;;;;;;;4.95;86.53;100095.19;5008330;28;20210;-81
2022/02/20 05:37:41;;;;;;;6.87;3.20;;;;;;;4.96;86.41;100078.44;5001578;28;20721;-80
2022/02/20 05:40:10;;;;;;;6.87;3.53;;;;;;;4.94;86.56;100090.84;5009482;28;20738;-80
2022/02/20 05:42:36;;;;;;;7.13;3.70;;;;;;;4.94;86.62;100096.97;5002521;28;20217;-79
2022/02/20 05:45:03;;;;;;;7.03;3.80;;;;;;;4.95;86.50;100093.41;5000389;28;20207;-80
2022/02/20 05:47:30;;;;;;;6.63;3.03;;;;;;;4.95;86.27;100096.06;5008648;28;20215;-80
2022/02/20 05:49:58;;;;;;;8.00;3.20;;;;;;;4.95;86.23;100097.84;5002781;28;20247;-79
2022/02/20 05:52:25;;;;;;;6.33;3.53;;;;;;;4.92;86.39;100109.38;5008388;28;20210;-80
2022/02/20 05:54:51;;;;;;;6.97;3.37;;;;;;;4.91;86.30;100112.97;5009512;28;20214;-79
2022/02/20 05:57:18;;;;;;;6.20;4.00;;;;;;;4.89;86.06;100110.38;5012299;28;20222;-80
2022/02/20 05:59:45;;;;;;;8.97;3.57;;;;;;;4.91;86.21;100106.81;4995769;28;20235;-81
2022/02/20 06:02:12;;;;;;;5.83;3.10;;;;;;;4.91;86.13;100101.53;5002326;28;20200;-80
2022/02/20 06:04:38;;;;;;;6.27;3.50;;;;;;;4.90;86.07;100113.88;5027351;28;20302;-80
2022/02/20 06:07:06;;;;;;;6.20;3.00;;;;;;;4.89;86.30;100126.22;5000922;28;20211;-80
2022/02/20 06:09:33;;;;;;;4.37;3.27;;;;;;;4.86;86.08;100121.09;5010127;28;20230;-81
2022/02/20 06:12:00;;;;;;;4.73;3.27;;;;;;;4.86;85.99;100126.34;5012231;28;20198;-81
2022/02/20 06:14:26;;;;;;;7.50;3.10;;;;;;;4.87;85.89;100138.63;5015216;28;20217;-80
2022/02/20 06:16:53;;;;;;;9.70;3.33;;;;;;;4.86;85.89;100129.00;5022801;28;20206;-80
2022/02/20 06:19:19;;;;;;;4.03;2.97;;;;;;;4.87;85.80;100122.78;5019311;28;20227;-81
2022/02/20 06:21:46;;;;;;;5.87;3.50;;;;;;;4.88;85.44;100126.28;5008921;28;20653;-80
2022/02/20 06:24:14;;;;;;;6.33;3.70;;;;;;;4.83;85.69;100121.25;4999038;28;20203;-80
2022/02/20 06:26:41;;;;;;;6.13;3.43;;;;;;;4.83;85.81;100121.25;5003985;28;20229;-80
2022/02/20 06:29:07;;;;;;;6.37;3.20;;;;;;;4.82;85.77;100122.19;5006370;28;20211;-80
2022/02/20 06:31:34;;;;;;;7.57;3.67;;;;;;;4.83;85.51;100125.69;5010169;28;20226;-80
2022/02/20 06:34:02;;;;;;;6.67;3.60;;;;;;;4.80;85.02;100126.69;4998709;28;20215;-80
2022/02/20 06:36:29;;;;;;;4.17;3.00;;;;;;;4.81;85.12;100132.81;5014610;28;20211;-80
2022/02/20 06:38:55;;;;;;;5.27;3.30;;;;;;;4.78;84.85;100132.94;5003921;28;20214;-80
2022/02/20 06:41:23;;;;;;;6.70;3.23;;;;;;;4.79;85.03;100129.38;5012410;28;20209;-81
2022/02/20 06:43:50;;;;;;;4.97;3.00;;;;;;;4.78;84.25;100136.44;5010085;28;20554;-80
2022/02/20 06:46:16;;;;;;;3.73;3.13;;;;;;;4.76;84.64;100129.53;5002456;28;20210;-80
2022/02/20 06:48:43;;;;;;;5.03;3.83;;;;;;;4.72;84.18;100133.22;5007003;28;20207;-81
2022/02/20 06:51:09;;;;;;;4.03;3.00;;;;;;;4.71;84.27;100127.09;5001067;28;21487;-81
2022/02/20 06:53:36;;;;;;;7.30;3.37;;;;;;;4.66;83.22;100128.28;5006449;28;20212;-80
2022/02/20 06:56:02;;;;;;;8.53;3.60;;;;;;;4.66;83.43;100126.44;5007241;28;20732;-81
2022/02/20 06:58:30;;;;;;;4.47;3.17;;;;;;;4.67;83.35;100135.22;5008655;28;20217;-80
2022/02/20 07:00:57;;;;;;;5.53;3.10;;;;;;;4.61;82.54;100132.91;5003771;28;20238;-80
2022/02/20 07:03:23;;;;;;;5.47;3.30;;;;;;;4.59;82.39;100137.38;5010269;28;20212;-80
2022/02/20 07:05:50;;;;;;;5.23;2.90;;;;;;;4.59;82.05;100132.09;5003410;28;20208;-80
2022/02/20 07:08:16;;;;;;;5.73;3.30;;;;;;;4.52;81.37;100136.81;5008281;28;20217;-80
2022/02/20 07:10:43;;;;;;;4.83;2.87;;;;;;;4.49;80.96;100140.44;5000425;28;20238;-80
2022/02/20 07:13:09;;;;;;;3.07;2.67;;;;;;;4.47;80.38;100123.00;5010462;28;20784;-80
2022/02/20 07:15:37;;;;;;;3.27;2.30;;;;;;;4.46;80.04;100137.13;5001979;28;20214;-80
2022/02/20 07:18:04;;;;;;;7.10;2.50;;;;;;;4.45;79.93;100135.41;5013337;28;20211;-80
2022/02/20 07:20:31;;;;;;;4.00;2.53;;;;;;;4.44;79.96;100133.69;5030844;28;20613;-81
2022/02/20 07:22:58;;;;;;;6.00;3.00;;;;;;;4.42;79.45;100132.91;5015736;28;20213;-82
2022/02/20 07:25:24;;;;;;;4.37;2.77;;;;;;;4.43;79.63;100131.97;5004218;28;20222;-81
2022/02/20 07:27:53;;;;;;;3.63;2.40;;;;;;;4.46;79.34;100122.16;5002865;28;20210;-80
2022/02/20 07:30:21;;;;;;;2.93;2.70;;;;;;;4.47;79.58;100115.94;5004653;28;20261;-82
2022/02/20 07:32:50;;;;;;;5.87;3.00;;;;;;;4.50;79.43;100118.41;5009329;28;20286;-80
2022/02/20 07:35:17;;;;;;;3.20;2.30;;;;;;;4.49;79.37;100103.53;4994661;28;20742;-80
2022/02/20 07:37:43;;;;;;;3.93;2.60;;;;;;;4.48;79.64;100098.31;5002317;28;20298;-80
2022/02/20 07:40:11;;;;;;;4.30;3.10;;;;;;;4.51;79.24;100087.63;5012602;28;20226;-80
2022/02/20 07:42:38;;;;;;;7.13;3.70;;;;;;;4.54;79.41;100090.97;5000027;28;20623;-80
2022/02/20 07:45:05;;;;;;;5.23;3.10;;;;;;;4.50;78.87;100086.78;5011116;28;20208;-80
2022/02/20 07:47:32;;;;;;;4.47;3.43;;;;;;;4.51;79.54;100095.53;4998616;28;20673;-81
2022/02/20 07:49:59;;;;;;;6.87;4.10;;;;;;;4.50;79.03;100088.56;5004718;28;20231;-80
2022/02/20 07:52:28;;;;;;;5.77;4.53;;;;;;;4.49;78.70;100084.19;5009018;28;20286;-80
2022/02/20 07:54:55;;;;;;;6.40;4.80;;;;;;;4.50;79.11;100089.41;4999720;28;20302;-80
2022/02/20 07:57:21;;;;;;;6.87;5.50;;;;;;;4.50;78.92;100085.91;5001745;28;20211;-80
2022/02/20 07:59:48;;;;;;;7.47;6.00;;;;;;;4.52;79.54;100078.78;4999078;28;20242;-80
2022/02/20 08:02:14;;;;;;;7.43;5.33;;;;;;;4.55;79.05;100070.75;5004883;28;20251;-81
2022/02/20 08:04:41;;;;;;;7.67;5.97;;;;;;;4.61;79.20;100069.59;5000105;28;20292;-82
2022/02/20 08:07:09;;;;;;;9.43;7.17;;;;;;;4.61;78.63;100061.69;5006957;28;20217;-81
2022/02/20 08:09:35;;;;;;;9.57;5.73;;;;;;;4.61;78.94;100054.63;5007281;28;20234;-82
2022/02/20 08:12:02;;;;;;;6.97;5.30;;;;;;;4.63;79.20;100055.41;4998952;28;20231;-81
2022/02/20 08:14:29;;;;;;;5.87;5.00;;;;;;;4.62;78.79;100037.88;5004247;28;20261;-81
2022/02/20 08:16:56;;;;;;;6.60;4.83;;;;;;;4.64;78.93;100041.31;5002113;28;20302;-81
2022/02/20 08:19:22;;;;;;;6.00;5.40;;;;;;;4.66;79.22;100039.41;5005679;28;20294;-81
2022/02/20 08:21:49;;;;;;;4.77;3.90;;;;;;;4.67;79.15;100029.72;5003018;28;20199;-80
2022/02/20 08:24:17;;;;;;;6.53;4.50;;;;;;;4.71;79.43;100029.50;5003611;28;20568;-81
2022/02/20 08:26:45;;;;;;;4.93;4.43;;;;;;;4.74;78.92;100018.81;4997782;28;20229;-80
2022/02/20 08:29:12;;;;;;;4.53;3.90;;;;;;;4.79;79.43;100014.16;5003756;28;20253;-81
2022/02/20 08:31:38;;;;;;;7.27;4.47;;;;;;;4.81;79.47;100012.31;5005832;28;20234;-80
2022/02/20 08:34:05;;;;;;;7.07;4.07;;;;;;;4.84;79.83;99998.94;5001638;28;20223;-81
2022/02/20 08:36:31;;;;;;;6.33;4.10;;;;;;;4.87;79.52;99990.88;5007690;28;20282;-80
2022/02/20 08:38:58;;;;;;;6.60;4.37;;;;;;;4.90;80.01;99979.31;5001627;28;20258;-80
2022/02/20 08:41:26;;;;;;;6.47;4.37;;;;;;;4.91;79.57;99974.88;4999337;28;20210;-80
2022/02/20 08:43:52;;;;;;;7.40;4.70;;;;;;;4.92;80.31;99960.78;4998933;28;20219;-81
2022/02/20 08:46:19;;;;;;;7.33;4.50;;;;;;;4.89;80.19;99952.06;4997603;28;20211;-81
2022/02/20 08:48:46;;;;;;;5.57;4.47;;;;;;;4.90;80.33;99952.94;5000409;28;20700;-80
2022/02/20 08:51:12;;;;;;;6.43;4.57;;;;;;;4.92;80.40;99948.44;5002251;28;20258;-81
2022/02/20 08:53:39;;;;;;;5.60;4.10;;;;;;;4.95;80.85;99945.63;4998167;28;20212;-81
2022/02/20 08:56:07;;;;;;;6.87;5.00;;;;;;;4.95;81.30;99942.16;4999544;28;20219;-81
2022/02/20 08:58:35;;;;;;;6.03;3.60;;;;;;;4.94;81.62;99943.94;4999719;28;20742;-81
2022/02/20 09:01:02;;;;;;;6.20;3.67;;;;;;;4.97;81.53;99929.72;5000689;28;20235;-79
2022/02/20 09:03:29;;;;;;;4.63;4.00;;;;;;;4.98;82.04;99924.38;5002696;28;20234;-80
2022/02/20 09:05:55;;;;;;;5.70;4.20;;;;;;;4.99;82.04;99917.31;5002258;28;20579;-80
2022/02/20 09:08:22;;;;;;;5.33;4.83;;;;;;;5.02;81.72;99903.94;4994838;28;20593;-81
2022/02/20 09:10:49;;;;;;;6.63;4.50;;;;;;;5.02;82.72;99894.22;4997221;28;20249;-80
2022/02/20 09:13:16;;;;;;;6.90;4.40;;;;;;;5.01;83.25;99897.84;5000508;28;20215;-79
2022/02/20 09:15:44;;;;;;;7.97;3.80;;;;;;;5.05;83.06;99883.53;5001256;28;20203;-80
2022/02/20 09:18:11;;;;;;;6.67;3.80;;;;;;;5.03;83.03;99876.63;5000643;28;20724;-80
2022/02/20 09:20:38;;;;;;;5.70;2.87;;;;;;;5.02;83.47;99872.28;5003248;28;20237;-79
2022/02/20 09:23:04;;;;;;;5.97;2.40;;;;;;;5.10;83.82;99855.09;5002135;28;20209;-80
2022/02/20 09:25:31;;;;;;;6.50;3.27;;;;;;;5.13;83.74;99854.94;4995134;28;20203;-80
2022/02/20 09:27:57;;;;;;;5.80;2.93;;;;;;;5.13;83.97;99838.25;5003141;28;20235;-81
2022/02/20 09:30:24;;;;;;;5.20;2.57;;;;;;;5.13;84.05;99832.97;4999344;28;20234;-80
2022/02/20 09:32:52;;;;;;;5.77;2.90;;;;;;;5.15;84.17;99831.13;5002549;28;20206;-80
2022/02/20 09:35:18;;;;;;;3.97;2.73;;;;;;;5.17;84.57;99818.69;4999451;28;20203;-80
2022/02/20 09:37:45;;;;;;;5.23;2.63;;;;;;;5.17;84.94;99821.31;4998460;28;20199;-80
2022/02/20 09:40:12;;;;;;;7.50;3.40;;;;;;;5.22;85.08;99808.72;5003286;28;20218;-81
2022/02/20 09:42:39;;;;;;;7.13;4.63;;;;;;;5.21;85.04;99812.28;4995733;28;20289;-80
2022/02/20 09:45:06;;;;;;;3.60;2.33;;;;;;;5.27;85.45;99811.97;5003933;28;20215;-80
2022/02/20 09:47:37;;;;;;;8.73;2.67;;;;;;;5.27;85.14;99801.41;5007471;28;20215;-80
2022/02/20 09:50:07;;;;;;;6.30;2.30;;;;;;;5.28;85.79;99792.53;5002080;28;20239;-80
2022/02/20 09:52:34;;;;;;;4.30;2.20;;;;;;;5.31;85.59;99786.25;5000642;28;20233;-79
2022/02/20 09:55:00;;;;;;;2.70;1.90;;;;;;;5.29;85.69;99773.13;4997968;28;20215;-81
2022/02/20 09:57:27;;;;;;;3.50;2.30;;;;;;;5.32;86.01;99765.03;5000896;28;20207;-79
2022/02/20 09:59:54;;;;;;;5.47;2.30;;;;;;;5.31;86.16;99742.22;5001644;28;20243;-80
2022/02/20 10:02:21;;;;;;;5.10;2.60;;;;;;;5.31;86.04;99746.66;5007673;28;20199;-79
2022/02/20 10:04:50;;;;;;;2.93;1.80;;;;;;;5.31;86.42;99738.72;4999922;28;20242;-79
2022/02/20 10:07:33;;;;;;;2.73;2.00;;;;;;;5.36;86.37;99745.47;5003435;28;20219;-81
2022/02/20 10:10:00;;;;;;;2.87;1.77;;;;;;;5.41;86.41;99721.41;5004490;28;20231;-81
2022/02/20 10:12:29;;;;;;;3.53;1.90;;;;;;;5.41;86.64;99716.13;5004275;28;20317;-81
2022/02/20 10:14:56;;;;;;;4.50;2.00;;;;;;;5.44;86.79;99722.09;5004803;28;20663;-80
2022/02/20 10:17:25;;;;;;;3.37;1.90;;;;;;;5.47;86.91;99713.16;5018374;28;20206;-80
2022/02/20 10:19:57;;;;;;;3.00;1.80;;;;;;;5.49;87.17;99709.47;5007953;28;20262;-81
2022/02/20 10:22:30;;;;;;;6.70;2.20;;;;;;;5.57;87.22;99712.50;5011733;28;20239;-80
2022/02/20 10:25:14;;;;;;;3.63;1.97;;;;;;;5.65;87.66;99705.94;5008767;28;20232;-81
2022/02/20 10:27:49;;;;;;;2.90;1.60;;;;;;;5.72;87.63;99705.53;5004636;28;20208;-80
2022/02/20 10:30:19;;;;;;;2.40;1.67;;;;;;;5.73;87.77;99691.34;5000633;28;20787;-80
2022/02/20 10:32:47;;;;;;;5.47;2.50;;;;;;;5.77;88.13;99692.00;5002489;28;20235;-80
2022/02/20 10:35:18;;;;;;;3.40;2.27;;;;;;;5.80;88.22;99686.56;5008416;28;20211;-80
2022/02/20 10:37:46;;;;;;;1.87;1.60;;;;;;;5.88;88.69;99679.03;5004699;28;20203;-80
2022/02/20 10:40:27;;;;;;;2.90;1.60;;;;;;;6.00;88.77;99683.63;5006592;28;20231;-80
2022/02/20 10:42:56;;;;;;;5.43;1.57;;;;;;;6.04;88.44;99689.56;5000171;28;20704;-80
2022/02/20 10:45:25;;;;;;;3.53;1.67;;;;;;;6.07;89.20;99678.81;5000605;28;20290;-80
2022/02/20 10:47:51;;;;;;;2.60;1.80;;;;;;;6.08;88.94;99697.25;5011286;28;20222;-80
2022/02/20 10:50:21;;;;;;;2.97;1.57;;;;;;;6.10;88.96;99679.47;5003247;28;20775;-80
2022/02/20 10:53:05;;;;;;;3.73;1.57;;;;;;;6.17;89.64;99690.53;5004517;28;20277;-80
2022/02/20 10:55:36;;;;;;;2.27;1.73;;;;;;;6.19;89.67;99678.94;5002142;28;20229;-80
2022/02/20 10:58:10;;;;;;;1.40;1.30;;;;;;;6.30;89.72;99678.25;5002853;28;20200;-80
2022/02/20 11:00:46;;;;;;;2.77;1.40;;;;;;;6.33;90.30;99683.38;5011269;28;20246;-80
2022/02/20 11:03:13;;;;;;;2.50;1.57;;;;;;;6.35;91.15;99699.13;5004386;28;20199;-80
2022/02/20 11:05:40;;;;;;;4.87;1.60;;;;;;;6.41;90.47;99673.19;4997066;28;20207;-80
2022/02/20 11:08:09;;;;;;;2.37;1.30;;;;;;;6.46;90.80;99683.44;5001272;28;21556;-79
2022/02/20 11:10:38;;;;;;;2.23;0.90;;;;;;;6.52;90.42;99681.28;5002100;28;20230;-80
2022/02/20 11:13:06;;;;;;;2.47;1.37;;;;;;;6.56;90.94;99681.94;4999250;28;20227;-79
2022/02/20 11:15:35;;;;;;;2.20;1.13;;;;;;;6.62;90.71;99673.66;4998542;28;20208;-80
2022/02/20 11:18:04;;;;;;;1.07;0.60;;;;;;;6.68;90.81;99657.38;4997552;28;20685;-80
2022/02/20 11:20:32;;;;;;;2.07;0.97;;;;;;;6.72;91.45;99647.44;5004399;28;20296;-80
2022/02/20 11:23:02;;;;;;;1.40;1.00;;;;;;;6.81;91.16;99654.78;5002068;28;20210;-81
2022/02/20 11:25:33;;;;;;;0.70;0.70;;;;;;;6.84;91.32;99631.63;5000810;28;20202;-80
2022/02/20 11:28:02;;;;;;;1.27;0.60;;;;;;;6.92;91.36;99613.47;5003514;28;20685;-79
2022/02/20 11:30:29;;;;;;;1.87;0.77;;;;;;;6.95;91.29;99612.44;5000614;28;20696;-80
2022/02/20 11:32:59;;;;;;;1.50;0.73;;;;;;;7.03;91.11;99606.63;5000879;28;20681;-81
2022/02/20 11:35:26;;;;;;;0.50;0.50;;;;;;;7.03;91.14;99603.97;5005369;28;20196;-81
2022/02/20 11:37:56;;;;;;;1.47;0.83;;;;;;;7.08;91.14;99609.81;4998874;28;20208;-80
2022/02/20 11:40:24;;;;;;;1.87;0.80;;;;;;;7.13;92.17;99621.81;4999587;28;20235;-80